Time;durP1;ratioP1;P1;durP2;ratioP2;P2;SDS_P1;SDS_P2;PMS_P1;PMS_P2;Temp;Humidity;BMP_temperature;BMP_pressure;BME280_temperature;BME280_humidity;BME280_pressure;Samples;Min_cycle;Max_cycle;Signal;HPM_P1;HPM_P2
2021/05/29 00:01:57;;;;;;;3.80;2.20;;;11.20;99.90;;;;;;494151;241;28114;-73
2021/05/29 00:03:58;;;;;;;2.87;2.00;;;11.10;99.90;;;;;;494156;241;28308;-72
2021/05/29 00:05:59;;;;;;;2.03;1.90;;;11.10;99.90;;;;;;494082;241;28206;-73
2021/05/29 00:08:00;;;;;;;3.37;2.37;;;11.00;99.90;;;;;;494041;241;28253;-73
2021/05/29 00:10:02;;;;;;;3.13;2.53;;;10.90;99.90;;;;;;494069;241;28181;-73
2021/05/29 00:12:03;;;;;;;3.23;2.00;;;10.90;99.90;;;;;;494065;241;28201;-73
2021/05/29 00:14:04;;;;;;;2.77;2.57;;;11.00;99.90;;;;;;494029;241;28089;-73
2021/05/29 00:16:08;;;;;;;2.30;2.20;;;11.10;99.90;;;;;;494183;241;28718;-73
2021/05/29 00:18:07;;;;;;;2.10;2.00;;;11.10;99.90;;;;;;493825;241;28836;-72
2021/05/29 00:20:08;;;;;;;2.13;1.93;;;11.00;99.90;;;;;;494114;241;28596;-74
2021/05/29 00:22:09;;;;;;;4.53;2.37;;;11.00;99.90;;;;;;494043;241;28298;-73
2021/05/29 00:24:10;;;;;;;5.97;2.70;;;11.00;99.90;;;;;;494006;241;28232;-73
2021/05/29 00:26:12;;;;;;;2.53;2.40;;;10.90;99.90;;;;;;494142;241;28308;-74
2021/05/29 00:28:13;;;;;;;2.30;2.10;;;10.90;99.90;;;;;;494029;241;28191;-72
2021/05/29 00:30:14;;;;;;;1.97;1.80;;;11.00;99.90;;;;;;493938;241;28549;-74
2021/05/29 00:32:15;;;;;;;2.53;2.33;;;11.00;99.90;;;;;;494076;241;28205;-73
2021/05/29 00:34:17;;;;;;;2.23;2.03;;;11.00;99.90;;;;;;494081;241;28123;-72
2021/05/29 00:36:18;;;;;;;3.10;1.90;;;10.90;99.90;;;;;;494159;241;28072;-72
2021/05/29 00:38:19;;;;;;;2.20;2.10;;;11.00;99.90;;;;;;494086;241;28085;-72
2021/05/29 00:40:20;;;;;;;7.50;2.20;;;10.90;99.90;;;;;;494037;241;28600;-72
2021/05/29 00:42:22;;;;;;;2.13;2.00;;;10.90;99.90;;;;;;493961;241;28514;-73
2021/05/29 00:44:23;;;;;;;2.20;2.00;;;10.80;99.90;;;;;;494057;237;28748;-73
2021/05/29 00:46:24;;;;;;;2.60;2.40;;;10.80;99.90;;;;;;494021;241;28143;-73
2021/05/29 00:48:25;;;;;;;2.03;1.93;;;10.70;99.90;;;;;;493871;241;27963;-72
2021/05/29 00:50:27;;;;;;;3.10;2.10;;;10.70;99.90;;;;;;494121;241;27873;-73
2021/05/29 00:52:28;;;;;;;2.43;2.23;;;10.60;99.90;;;;;;494066;241;27947;-73
2021/05/29 00:54:29;;;;;;;2.03;1.93;;;10.60;99.90;;;;;;494082;241;28157;-72
2021/05/29 00:56:30;;;;;;;2.50;2.30;;;10.70;99.90;;;;;;494054;239;28116;-73
2021/05/29 00:58:32;;;;;;;2.13;1.70;;;10.70;99.90;;;;;;493988;241;28078;-73
2021/05/29 01:00:33;;;;;;;2.53;2.07;;;10.60;99.90;;;;;;494030;237;28095;-73
2021/05/29 01:02:34;;;;;;;2.23;2.13;;;10.50;99.90;;;;;;494072;241;28035;-73
2021/05/29 01:04:35;;;;;;;2.10;1.90;;;10.60;99.90;;;;;;494049;241;28463;-73
2021/05/29 01:06:37;;;;;;;2.27;2.07;;;10.50;99.90;;;;;;494057;241;28400;-73
2021/05/29 01:08:38;;;;;;;2.37;2.07;;;10.50;99.90;;;;;;494082;241;28601;-72
2021/05/29 01:10:39;;;;;;;2.30;2.20;;;10.40;99.90;;;;;;494061;241;28249;-73
2021/05/29 01:12:41;;;;;;;2.80;2.47;;;10.40;99.90;;;;;;494046;241;28081;-73
2021/05/29 01:14:53;;;;;;;2.20;2.10;;;10.30;99.90;;;;;;494047;241;28041;-73
2021/05/29 01:16:49;;;;;;;6.67;2.50;;;10.30;99.90;;;;;;493589;241;27833;-73
2021/05/29 01:18:50;;;;;;;2.37;2.17;;;10.20;99.90;;;;;;494067;241;27737;-73
2021/05/29 01:20:51;;;;;;;3.07;2.70;;;10.10;99.90;;;;;;494046;241;27956;-73
2021/05/29 01:22:53;;;;;;;2.70;2.50;;;10.10;99.90;;;;;;494065;241;28407;-73
2021/05/29 01:24:54;;;;;;;2.50;2.30;;;10.10;99.90;;;;;;494184;241;28580;-73
2021/05/29 01:26:55;;;;;;;4.27;2.50;;;10.20;99.90;;;;;;494185;241;28535;-73
2021/05/29 01:28:57;;;;;;;7.70;2.20;;;10.30;99.90;;;;;;494173;237;28127;-73
2021/05/29 01:31:00;;;;;;;2.70;2.50;;;10.30;99.90;;;;;;494171;241;27924;-73
2021/05/29 01:32:59;;;;;;;3.97;2.57;;;10.30;99.90;;;;;;493949;237;27982;-73
2021/05/29 01:35:00;;;;;;;2.83;2.40;;;10.30;99.90;;;;;;494060;241;27833;-73
2021/05/29 01:37:01;;;;;;;2.70;2.50;;;10.40;99.90;;;;;;494083;237;27899;-73
2021/05/29 01:39:05;;;;;;;2.83;2.30;;;10.40;99.90;;;;;;494085;241;28003;-73
2021/05/29 01:41:04;;;;;;;2.80;2.40;;;10.50;99.90;;;;;;493926;241;27954;-73
2021/05/29 01:43:05;;;;;;;3.10;2.53;;;10.50;99.90;;;;;;494076;241;27942;-73
2021/05/29 01:45:06;;;;;;;7.37;2.73;;;10.50;99.90;;;;;;494067;237;27840;-73
2021/05/29 01:47:08;;;;;;;2.57;2.37;;;10.50;99.90;;;;;;494077;241;28472;-73
2021/05/29 01:49:09;;;;;;;2.50;2.30;;;10.50;99.90;;;;;;494115;241;28611;-73
2021/05/29 01:51:10;;;;;;;3.57;3.27;;;10.60;99.90;;;;;;494099;241;28440;-73
2021/05/29 01:53:11;;;;;;;4.70;3.67;;;10.60;99.90;;;;;;494105;241;27962;-71
2021/05/29 01:55:13;;;;;;;7.10;3.60;;;10.60;99.90;;;;;;494117;241;27923;-72
2021/05/29 01:57:14;;;;;;;3.50;3.20;;;10.60;99.90;;;;;;494097;241;27850;-73
2021/05/29 01:59:15;;;;;;;6.93;3.40;;;10.60;99.90;;;;;;494079;239;28085;-73
2021/05/29 02:01:16;;;;;;;5.90;3.97;;;10.60;99.90;;;;;;494005;241;27926;-73
2021/05/29 02:03:18;;;;;;;4.07;3.43;;;10.60;99.90;;;;;;493978;241;27987;-73
2021/05/29 02:05:19;;;;;;;5.43;4.10;;;10.60;99.90;;;;;;493985;241;27830;-73
2021/05/29 02:07:20;;;;;;;5.10;3.47;;;10.60;99.90;;;;;;493829;241;27849;-73
2021/05/29 02:09:21;;;;;;;6.83;3.87;;;10.60;99.90;;;;;;494063;241;27996;-73
2021/05/29 02:11:23;;;;;;;5.30;4.30;;;10.60;99.90;;;;;;494027;241;28397;-72
2021/05/29 02:13:24;;;;;;;6.17;4.40;;;10.50;99.90;;;;;;493951;241;28596;-73
2021/05/29 02:15:25;;;;;;;6.97;4.00;;;10.50;99.90;;;;;;494157;241;28408;-73
2021/05/29 02:17:26;;;;;;;5.43;3.80;;;10.50;99.90;;;;;;494048;241;28122;-73
2021/05/29 02:19:28;;;;;;;5.30;3.73;;;10.40;99.90;;;;;;494083;241;27979;-73
2021/05/29 02:21:29;;;;;;;3.60;3.20;;;10.40;99.90;;;;;;494142;241;28046;-73
2021/05/29 02:23:30;;;;;;;4.07;3.23;;;10.40;99.90;;;;;;494082;241;28104;-73
2021/05/29 02:25:31;;;;;;;3.80;3.43;;;10.30;99.90;;;;;;494105;241;27955;-72
2021/05/29 02:27:33;;;;;;;5.87;3.70;;;10.30;99.90;;;;;;494038;240;28010;-73
2021/05/29 02:29:34;;;;;;;3.13;2.83;;;10.30;99.90;;;;;;494077;241;28195;-74
2021/05/29 02:31:37;;;;;;;4.00;2.90;;;10.20;99.90;;;;;;494085;241;28005;-72
2021/05/29 02:33:36;;;;;;;2.93;2.73;;;10.20;99.90;;;;;;494091;241;27980;-73
2021/05/29 02:35:38;;;;;;;3.90;2.60;;;10.20;99.90;;;;;;494174;241;28054;-73
2021/05/29 02:37:39;;;;;;;7.10;2.77;;;10.10;99.90;;;;;;494073;241;28505;-74
2021/05/29 02:39:40;;;;;;;4.23;2.50;;;10.00;99.90;;;;;;493979;241;28206;-74
2021/05/29 02:41:41;;;;;;;5.13;2.80;;;9.80;99.90;;;;;;493961;241;27992;-73
2021/05/29 02:43:43;;;;;;;2.60;2.40;;;9.80;99.90;;;;;;494068;241;27619;-73
2021/05/29 02:45:44;;;;;;;4.60;2.70;;;9.70;99.90;;;;;;494071;241;27946;-73
2021/05/29 02:47:45;;;;;;;2.60;2.40;;;9.70;99.90;;;;;;494078;241;28060;-73
2021/05/29 02:49:46;;;;;;;4.67;2.80;;;9.60;99.90;;;;;;494073;241;27979;-73
2021/05/29 02:51:48;;;;;;;3.07;2.63;;;9.60;99.90;;;;;;494165;241;27938;-73
2021/05/29 02:53:49;;;;;;;2.60;2.40;;;9.50;99.90;;;;;;494061;241;28351;-72
2021/05/29 02:55:50;;;;;;;5.43;3.10;;;9.50;99.90;;;;;;494112;241;27959;-73
2021/05/29 02:57:51;;;;;;;2.73;2.53;;;9.50;99.90;;;;;;494050;241;27812;-73
2021/05/29 02:59:53;;;;;;;3.07;2.40;;;9.50;99.90;;;;;;494080;241;27529;-73
2021/05/29 03:01:54;;;;;;;3.10;2.70;;;9.60;99.90;;;;;;494110;241;27950;-72
2021/05/29 03:03:55;;;;;;;2.70;2.50;;;9.40;99.90;;;;;;494116;241;28107;-73
2021/05/29 03:05:56;;;;;;;3.57;2.63;;;9.20;99.90;;;;;;494099;241;28034;-73
2021/05/29 03:07:58;;;;;;;2.20;2.00;;;9.00;99.90;;;;;;494091;241;27995;-73
2021/05/29 03:09:59;;;;;;;2.63;2.40;;;9.00;99.90;;;;;;494138;241;28858;-73
2021/05/29 03:12:00;;;;;;;3.37;2.70;;;9.10;99.90;;;;;;494156;241;28410;-73
2021/05/29 03:14:01;;;;;;;4.60;3.00;;;9.10;99.90;;;;;;494064;237;28575;-73
2021/05/29 03:16:03;;;;;;;5.73;2.90;;;9.10;99.90;;;;;;494074;241;28509;-72
2021/05/29 03:18:04;;;;;;;3.70;2.60;;;9.10;99.90;;;;;;494001;241;28557;-73
2021/05/29 03:20:05;;;;;;;4.87;2.67;;;9.00;99.90;;;;;;494114;237;27896;-73
2021/05/29 03:22:06;;;;;;;2.90;2.70;;;8.80;99.90;;;;;;494049;241;27980;-72
2021/05/29 03:24:08;;;;;;;2.80;2.60;;;8.80;99.90;;;;;;494074;241;28078;-74
2021/05/29 03:26:09;;;;;;;3.30;2.90;;;8.70;99.90;;;;;;494077;241;28031;-73
2021/05/29 03:28:10;;;;;;;3.07;2.77;;;8.70;99.90;;;;;;494064;241;27987;-73
2021/05/29 03:30:11;;;;;;;3.20;2.90;;;8.80;99.90;;;;;;494148;241;27552;-72
2021/05/29 03:32:13;;;;;;;3.93;3.60;;;8.90;99.90;;;;;;494121;241;28052;-73
2021/05/29 03:34:14;;;;;;;3.40;3.10;;;8.90;99.90;;;;;;494173;241;28025;-75
2021/05/29 03:36:15;;;;;;;3.63;2.90;;;9.00;99.90;;;;;;494091;241;27942;-73
2021/05/29 03:38:18;;;;;;;4.73;3.20;;;9.00;99.90;;;;;;494156;241;27709;-73
2021/05/29 03:40:18;;;;;;;3.33;3.07;;;8.80;99.90;;;;;;493984;241;28023;-72
2021/05/29 03:42:19;;;;;;;5.43;3.10;;;8.70;99.90;;;;;;494116;241;27854;-73
2021/05/29 03:44:20;;;;;;;3.33;3.13;;;8.70;99.90;;;;;;494154;241;28063;-73
2021/05/29 03:46:21;;;;;;;2.83;2.63;;;8.70;99.90;;;;;;494148;239;28473;-73
2021/05/29 03:48:23;;;;;;;4.33;3.27;;;8.90;99.90;;;;;;494125;241;28593;-72
2021/05/29 03:50:24;;;;;;;5.67;3.20;;;8.90;99.90;;;;;;494108;241;28397;-73
2021/05/29 03:52:25;;;;;;;12.43;3.67;;;8.60;99.90;;;;;;494066;241;28512;-73
2021/05/29 03:54:26;;;;;;;2.80;2.60;;;8.30;99.90;;;;;;494150;241;28525;-74
2021/05/29 03:56:28;;;;;;;2.60;2.40;;;8.20;99.90;;;;;;494112;239;27904;-73
2021/05/29 03:58:30;;;;;;;2.63;2.43;;;8.10;99.90;;;;;;494127;241;28053;-73
2021/05/29 04:00:31;;;;;;;6.83;3.17;;;8.00;99.90;;;;;;493980;241;27662;-72
2021/05/29 04:02:31;;;;;;;2.90;2.70;;;8.00;99.90;;;;;;493939;241;27634;-73
2021/05/29 04:04:33;;;;;;;2.80;2.60;;;8.10;99.90;;;;;;494063;241;28015;-73
2021/05/29 04:06:34;;;;;;;2.90;2.47;;;8.10;99.90;;;;;;494067;241;28014;-73
2021/05/29 04:08:35;;;;;;;2.60;2.50;;;8.00;99.90;;;;;;494140;241;27996;-73
2021/05/29 04:10:37;;;;;;;3.00;2.80;;;8.00;99.90;;;;;;494120;241;27974;-73
2021/05/29 04:12:38;;;;;;;2.67;2.47;;;7.90;99.90;;;;;;494130;239;27860;-73
2021/05/29 04:14:39;;;;;;;3.53;2.60;;;7.90;99.90;;;;;;494138;241;28332;-72
2021/05/29 04:16:40;;;;;;;2.40;2.30;;;7.80;99.90;;;;;;494153;241;27715;-73
2021/05/29 04:18:41;;;;;;;2.70;2.50;;;7.90;99.90;;;;;;494139;241;27965;-73
2021/05/29 04:20:43;;;;;;;4.33;2.93;;;8.00;99.90;;;;;;494107;237;27676;-72
2021/05/29 04:22:44;;;;;;;3.00;2.80;;;8.00;99.90;;;;;;494162;239;28079;-72
2021/05/29 04:24:45;;;;;;;4.30;3.07;;;8.00;99.90;;;;;;494149;241;28506;-73
2021/05/29 04:26:46;;;;;;;2.70;2.50;;;8.10;99.90;;;;;;494144;241;28412;-72
2021/05/29 04:28:48;;;;;;;3.23;2.93;;;8.10;99.90;;;;;;494172;241;28534;-73
2021/05/29 04:30:49;;;;;;;3.80;2.77;;;8.10;99.90;;;;;;494064;237;28486;-73
2021/05/29 04:32:50;;;;;;;3.53;3.27;;;8.10;99.90;;;;;;494096;241;28438;-73
2021/05/29 04:34:51;;;;;;;3.30;3.10;;;8.10;99.90;;;;;;494087;241;28165;-72
2021/05/29 04:36:53;;;;;;;3.13;2.83;;;8.10;99.90;;;;;;494086;241;27915;-73
2021/05/29 04:38:54;;;;;;;2.93;2.50;;;8.20;99.90;;;;;;494074;237;28142;-74
2021/05/29 04:40:55;;;;;;;2.87;2.50;;;8.20;99.90;;;;;;494136;237;28011;-73
2021/05/29 04:42:59;;;;;;;3.13;2.80;;;8.30;99.90;;;;;;494147;241;28060;-73
2021/05/29 04:44:58;;;;;;;2.80;2.60;;;8.20;99.90;;;;;;493855;241;27908;-73
2021/05/29 04:47:00;;;;;;;2.97;2.37;;;8.20;99.90;;;;;;494116;241;27607;-73
2021/05/29 04:49:00;;;;;;;3.23;2.63;;;8.20;99.90;;;;;;493947;241;27997;-74
2021/05/29 04:51:15;;;;;;;10.40;2.87;;;8.30;99.90;;;;;;494060;241;28260;-73
2021/05/29 04:53:15;;;;;;;3.00;2.70;;;8.40;99.90;;;;;;493984;241;28123;-73
2021/05/29 04:55:16;;;;;;;3.83;2.97;;;8.50;99.90;;;;;;494056;241;28528;-73
2021/05/29 04:57:17;;;;;;;2.70;2.50;;;8.50;99.90;;;;;;494092;241;27595;-73
2021/05/29 04:59:18;;;;;;;3.37;3.07;;;8.50;99.90;;;;;;494061;241;27877;-73
2021/05/29 05:01:20;;;;;;;3.30;3.00;;;8.50;99.90;;;;;;494108;241;27815;-73
2021/05/29 05:03:21;;;;;;;3.30;3.10;;;8.50;99.90;;;;;;494085;241;27867;-72
2021/05/29 05:05:22;;;;;;;3.00;2.80;;;8.50;99.90;;;;;;494150;241;28026;-73
2021/05/29 05:07:23;;;;;;;3.30;3.00;;;8.50;99.90;;;;;;494141;241;28026;-73
2021/05/29 05:09:25;;;;;;;3.23;2.97;;;8.60;99.90;;;;;;494174;241;27948;-72
2021/05/29 05:11:26;;;;;;;2.77;2.57;;;8.70;99.90;;;;;;494187;241;28220;-73
2021/05/29 05:13:28;;;;;;;2.90;2.70;;;8.70;99.90;;;;;;494145;241;28009;-73
2021/05/29 05:15:28;;;;;;;2.97;2.67;;;8.80;99.90;;;;;;494072;241;28099;-73
2021/05/29 05:17:30;;;;;;;3.10;2.83;;;8.90;99.90;;;;;;494143;241;27976;-73
2021/05/29 05:19:31;;;;;;;3.17;2.97;;;8.90;99.90;;;;;;494136;241;27990;-73
2021/05/29 05:21:32;;;;;;;2.80;2.60;;;8.90;99.90;;;;;;494192;240;27977;-72
2021/05/29 05:23:33;;;;;;;2.90;2.70;;;8.90;99.90;;;;;;494173;241;27731;-74
2021/05/29 05:25:35;;;;;;;3.30;3.10;;;8.90;99.90;;;;;;494157;241;28504;-72
2021/05/29 05:27:36;;;;;;;2.97;2.77;;;9.00;99.90;;;;;;494163;241;28453;-73
2021/05/29 05:29:37;;;;;;;2.50;2.30;;;9.00;99.90;;;;;;494170;241;28347;-73
2021/05/29 05:31:39;;;;;;;2.80;2.60;;;9.10;99.90;;;;;;494080;241;28126;-73
2021/05/29 05:33:42;;;;;;;4.50;3.17;;;9.20;99.90;;;;;;494069;241;28526;-73
2021/05/29 05:35:42;;;;;;;2.90;2.67;;;9.30;99.90;;;;;;493929;241;27832;-73
2021/05/29 05:37:42;;;;;;;2.80;2.60;;;9.40;99.90;;;;;;494073;241;27634;-73
2021/05/29 05:39:43;;;;;;;2.80;2.60;;;9.40;99.90;;;;;;494144;241;27956;-74
2021/05/29 05:41:45;;;;;;;3.80;3.10;;;9.50;99.90;;;;;;494183;241;27920;-73
2021/05/29 05:43:49;;;;;;;3.00;2.80;;;9.60;99.90;;;;;;494120;237;28028;-73
2021/05/29 05:45:47;;;;;;;2.90;2.70;;;9.60;99.90;;;;;;493921;237;27935;-73
2021/05/29 05:47:48;;;;;;;2.73;2.50;;;9.70;99.90;;;;;;494119;241;27738;-73
2021/05/29 05:49:50;;;;;;;2.63;2.43;;;9.70;99.90;;;;;;494202;241;28329;-73
2021/05/29 05:51:51;;;;;;;4.63;3.50;;;9.90;99.90;;;;;;494113;241;28036;-73
2021/05/29 05:53:52;;;;;;;3.33;3.03;;;10.00;99.90;;;;;;494084;241;28082;-72
2021/05/29 05:55:58;;;;;;;3.07;2.77;;;10.20;99.90;;;;;;494199;241;27822;-73
2021/05/29 05:57:55;;;;;;;2.87;2.57;;;10.40;99.90;;;;;;493824;241;27977;-72
2021/05/29 05:59:56;;;;;;;4.00;2.63;;;10.70;99.90;;;;;;494113;241;28529;-72
2021/05/29 06:01:57;;;;;;;3.07;2.87;;;11.00;99.90;;;;;;494186;241;28256;-73
2021/05/29 06:03:58;;;;;;;2.60;2.40;;;11.20;99.90;;;;;;494204;241;28444;-73
2021/05/29 06:06:00;;;;;;;2.67;2.47;;;11.10;99.90;;;;;;494019;241;27995;-73
2021/05/29 06:08:01;;;;;;;2.57;2.37;;;11.30;99.90;;;;;;494063;241;27960;-73
2021/05/29 06:10:02;;;;;;;2.80;2.60;;;11.50;99.90;;;;;;494042;241;28083;-73
2021/05/29 06:12:03;;;;;;;2.67;2.47;;;11.60;99.90;;;;;;494099;241;28057;-73
2021/05/29 06:18:54;;;;;;;2.17;1.97;;;11.80;99.90;;;;;;494205;241;28087;-73
2021/05/29 06:20:27;;;;;;;3.13;2.27;;;12.00;99.90;;;;;;492422;241;28218;-74
2021/05/29 06:22:28;;;;;;;2.53;2.30;;;12.10;99.90;;;;;;494189;237;28422;-73
2021/05/29 06:24:29;;;;;;;2.63;2.43;;;12.10;99.90;;;;;;494090;237;28640;-73
2021/05/29 06:26:31;;;;;;;2.40;2.30;;;12.10;99.90;;;;;;494103;241;28608;-73
2021/05/29 06:28:32;;;;;;;3.37;2.57;;;12.10;99.90;;;;;;494055;241;28836;-73
2021/05/29 06:30:33;;;;;;;2.47;2.30;;;12.40;99.90;;;;;;494144;237;28559;-73
2021/05/29 06:32:34;;;;;;;3.33;2.17;;;12.40;99.90;;;;;;494131;237;28281;-73
2021/05/29 06:34:36;;;;;;;1.93;1.83;;;12.40;99.90;;;;;;494145;241;28401;-73
2021/05/29 06:36:37;;;;;;;2.47;2.27;;;12.60;99.90;;;;;;494070;241;28354;-73
2021/05/29 06:38:38;;;;;;;3.47;2.20;;;12.60;99.90;;;;;;494032;241;28075;-73
2021/05/29 06:40:39;;;;;;;2.27;2.17;;;12.60;99.90;;;;;;494135;241;28903;-74
2021/05/29 06:42:41;;;;;;;2.37;2.17;;;12.70;99.90;;;;;;494084;239;28513;-73
2021/05/29 06:44:42;;;;;;;2.10;1.90;;;12.70;99.90;;;;;;494031;239;28901;-74
2021/05/29 06:46:43;;;;;;;3.50;1.97;;;12.90;99.90;;;;;;494049;241;29109;-73
2021/05/29 06:48:44;;;;;;;2.30;2.20;;;12.90;99.90;;;;;;494042;241;28731;-73
2021/05/29 06:50:53;;;;;;;11.03;2.40;;;12.90;99.90;;;;;;494122;237;29331;-73
2021/05/29 06:52:52;;;;;;;3.90;2.57;;;12.80;99.90;;;;;;493694;241;28671;-73
2021/05/29 06:59:18;;;;;;;2.43;2.23;;;13.00;99.90;;;;;;494146;241;28306;-73
2021/05/29 07:01:19;;;;;;;2.50;2.20;;;13.00;99.90;;;;;;494038;239;28693;-74
2021/05/29 07:03:20;;;;;;;2.20;2.07;;;13.10;99.90;;;;;;494058;241;28788;-73
2021/05/29 07:05:23;;;;;;;2.30;2.10;;;;;;;;;;494072;241;28622;-74
2021/05/29 07:07:24;;;;;;;2.00;1.90;;;13.10;99.90;;;;;;494163;241;26680;-74
2021/05/29 07:09:25;;;;;;;2.13;1.90;;;13.10;99.90;;;;;;494109;241;28922;-73
2021/05/29 07:11:27;;;;;;;2.20;2.00;;;13.20;99.90;;;;;;494043;241;28549;-74
2021/05/29 07:13:29;;;;;;;2.30;2.20;;;;;;;;;;494057;241;28873;-74
2021/05/29 07:15:38;;;;;;;2.60;2.07;;;13.20;99.90;;;;;;494209;241;26675;-74
2021/05/29 07:17:39;;;;;;;2.60;2.40;;;13.40;99.90;;;;;;493668;241;28796;-74
2021/05/29 07:19:36;;;;;;;3.23;2.30;;;;;;;;;;493689;241;28321;-74
2021/05/29 07:21:39;;;;;;;2.63;2.07;;;13.50;99.90;;;;;;494077;237;26594;-74
2021/05/29 07:23:39;;;;;;;2.83;2.27;;;13.60;99.90;;;;;;494096;241;28406;-74
2021/05/29 07:25:41;;;;;;;3.77;2.03;;;13.70;99.90;;;;;;494143;241;28266;-74
2021/05/29 07:27:41;;;;;;;2.83;1.67;;;13.80;99.90;;;;;;494036;241;28216;-74
2021/05/29 07:29:43;;;;;;;3.63;2.13;;;13.90;99.90;;;;;;494030;241;28844;-74
2021/05/29 07:31:44;;;;;;;2.50;2.30;;;13.90;99.90;;;;;;494071;241;28304;-74
2021/05/29 07:33:49;;;;;;;2.50;2.30;;;13.90;99.90;;;;;;494057;241;28313;-74
2021/05/29 07:35:47;;;;;;;2.00;1.90;;;13.90;99.90;;;;;;493689;241;28811;-73
2021/05/29 07:37:48;;;;;;;2.80;2.60;;;13.80;99.90;;;;;;494026;241;28933;-74
2021/05/29 07:39:49;;;;;;;2.10;2.00;;;13.80;99.90;;;;;;494137;241;29421;-74
2021/05/29 07:41:50;;;;;;;2.20;2.10;;;14.00;99.90;;;;;;494050;241;28861;-73
2021/05/29 07:43:51;;;;;;;10.27;2.40;;;14.10;99.90;;;;;;494074;241;28315;-73
2021/05/29 07:45:53;;;;;;;2.47;2.27;;;14.20;99.90;;;;;;494049;241;28333;-73
2021/05/29 07:47:54;;;;;;;2.53;2.33;;;14.20;99.90;;;;;;494069;241;28221;-73
2021/05/29 07:49:55;;;;;;;9.00;2.63;;;14.20;99.90;;;;;;494073;241;28163;-73
2021/05/29 07:51:56;;;;;;;2.63;2.40;;;14.20;99.90;;;;;;493937;241;28424;-74
2021/05/29 07:53:59;;;;;;;2.53;2.33;;;;;;;;;;494120;241;28397;-73
2021/05/29 07:56:00;;;;;;;3.23;2.50;;;14.20;99.90;;;;;;494028;241;26587;-73
2021/05/29 07:58:01;;;;;;;3.00;2.40;;;14.30;99.90;;;;;;494038;241;28256;-73
2021/05/29 08:00:04;;;;;;;2.57;2.40;;;14.30;99.90;;;;;;494122;241;28478;-74
2021/05/29 08:02:04;;;;;;;2.90;2.17;;;14.30;99.90;;;;;;494026;239;28332;-74
2021/05/29 08:04:05;;;;;;;2.80;2.60;;;14.20;99.90;;;;;;494128;241;28386;-74
2021/05/29 08:06:14;;;;;;;2.73;2.30;;;14.40;99.90;;;;;;494032;241;28542;-74
2021/05/29 08:08:10;;;;;;;2.30;2.03;;;14.40;99.90;;;;;;493761;237;28188;-73
2021/05/29 08:10:12;;;;;;;8.27;2.77;;;14.50;99.90;;;;;;494062;240;28281;-73
2021/05/29 08:12:13;;;;;;;2.50;2.23;;;14.40;99.90;;;;;;494101;241;28290;-73
2021/05/29 08:14:15;;;;;;;2.80;2.50;;;14.60;99.90;;;;;;494146;241;28754;-73
2021/05/29 08:16:16;;;;;;;5.07;2.90;;;14.70;99.90;;;;;;494127;241;28592;-74
2021/05/29 08:18:17;;;;;;;2.70;2.50;;;14.60;99.90;;;;;;494114;241;28837;-73
2021/05/29 08:20:18;;;;;;;2.67;2.47;;;14.70;99.90;;;;;;494072;241;28259;-73
2021/05/29 08:22:19;;;;;;;3.13;2.40;;;14.80;99.90;;;;;;494050;241;28321;-73
2021/05/29 08:24:21;;;;;;;2.73;2.47;;;14.90;99.90;;;;;;494132;241;28815;-73
2021/05/29 08:26:22;;;;;;;1.93;1.83;;;15.00;99.90;;;;;;494149;241;29413;-73
2021/05/29 08:28:23;;;;;;;2.73;2.50;;;14.90;99.90;;;;;;494040;241;29348;-76
2021/05/29 08:30:24;;;;;;;3.33;2.67;;;15.00;99.90;;;;;;494042;241;28503;-74
2021/05/29 08:32:25;;;;;;;5.60;2.50;;;15.00;99.90;;;;;;494152;241;28564;-73
2021/05/29 08:34:27;;;;;;;3.70;2.33;;;15.00;99.90;;;;;;494112;241;28822;-73
2021/05/29 08:36:28;;;;;;;2.10;1.90;;;15.10;99.90;;;;;;494157;241;28799;-73
2021/05/29 08:38:29;;;;;;;2.10;2.00;;;15.20;99.90;;;;;;494092;241;28843;-74
2021/05/29 08:40:30;;;;;;;2.23;2.03;;;15.20;99.90;;;;;;494043;241;28802;-73
2021/05/29 08:42:32;;;;;;;4.77;2.63;;;15.10;99.90;;;;;;494084;237;28858;-74
2021/05/29 08:44:33;;;;;;;2.17;2.07;;;14.90;99.90;;;;;;494147;241;28845;-73
2021/05/29 08:46:34;;;;;;;2.47;2.27;;;15.00;99.90;;;;;;494114;241;29352;-73
2021/05/29 08:48:35;;;;;;;4.33;2.03;;;15.30;99.90;;;;;;494138;241;29298;-74
2021/05/29 08:50:37;;;;;;;4.00;2.40;;;15.30;99.90;;;;;;494117;241;29251;-73
2021/05/29 08:52:38;;;;;;;3.17;2.27;;;15.40;99.90;;;;;;494121;241;29341;-74
2021/05/29 08:54:39;;;;;;;2.33;2.13;;;15.50;99.90;;;;;;494067;241;28939;-75
2021/05/29 08:56:40;;;;;;;2.43;2.23;;;15.40;99.90;;;;;;494065;241;28815;-74
2021/05/29 08:58:42;;;;;;;5.07;2.37;;;15.30;99.90;;;;;;494020;241;28849;-73
2021/05/29 09:00:43;;;;;;;2.50;2.30;;;15.50;99.90;;;;;;494002;241;28852;-74
2021/05/29 09:02:44;;;;;;;2.97;2.53;;;15.70;99.90;;;;;;494125;241;28857;-74
2021/05/29 09:04:45;;;;;;;3.00;2.70;;;15.60;99.90;;;;;;494145;241;28810;-74
2021/05/29 09:06:47;;;;;;;3.60;2.50;;;15.70;99.90;;;;;;494097;241;28847;-74
2021/05/29 09:08:48;;;;;;;3.60;2.73;;;15.90;99.90;;;;;;494037;241;28856;-74
2021/05/29 09:10:51;;;;;;;3.20;2.30;;;15.70;99.90;;;;;;494047;241;29374;-75
2021/05/29 09:12:50;;;;;;;2.63;2.20;;;15.80;99.90;;;;;;493920;241;29370;-74
2021/05/29 09:14:52;;;;;;;3.07;2.53;;;16.00;99.90;;;;;;494064;241;29287;-75
2021/05/29 09:16:53;;;;;;;2.23;2.13;;;16.00;99.90;;;;;;494049;241;29322;-75
2021/05/29 09:18:55;;;;;;;3.90;2.70;;;16.10;99.90;;;;;;494032;241;28961;-75
2021/05/29 09:20:55;;;;;;;2.40;2.20;;;16.10;99.90;;;;;;494027;241;28812;-75
2021/05/29 09:22:57;;;;;;;2.50;2.30;;;16.10;99.90;;;;;;494046;241;28845;-74
2021/05/29 09:24:58;;;;;;;2.53;1.97;;;16.10;99.90;;;;;;494044;241;28800;-74
2021/05/29 09:26:59;;;;;;;2.20;2.00;;;16.00;99.90;;;;;;494024;241;28831;-75
2021/05/29 09:29:00;;;;;;;2.43;2.23;;;16.30;99.90;;;;;;494015;241;29285;-76
2021/05/29 09:31:02;;;;;;;2.27;2.07;;;16.20;99.90;;;;;;494046;241;28814;-74
2021/05/29 09:33:03;;;;;;;3.57;2.07;;;16.30;99.90;;;;;;494026;241;28868;-75
2021/05/29 09:35:04;;;;;;;1.90;1.70;;;16.10;99.90;;;;;;494098;241;29414;-73
2021/05/29 09:37:06;;;;;;;2.57;1.90;;;15.90;99.90;;;;;;494050;241;29297;-73
2021/05/29 09:39:07;;;;;;;2.00;1.80;;;16.10;99.90;;;;;;494101;239;29560;-73
2021/05/29 09:41:08;;;;;;;1.90;1.80;;;16.00;99.90;;;;;;494091;241;28804;-73
2021/05/29 09:43:09;;;;;;;4.40;1.70;;;16.00;99.90;;;;;;494119;241;28833;-73
2021/05/29 09:45:11;;;;;;;1.60;1.50;;;15.90;99.90;;;;;;494130;241;28864;-73
2021/05/29 09:47:13;;;;;;;2.00;1.80;;;15.80;99.90;;;;;;494174;241;28825;-73
2021/05/29 09:49:13;;;;;;;1.87;1.73;;;15.60;99.90;;;;;;494065;241;29364;-74
2021/05/29 09:51:14;;;;;;;3.00;2.10;;;15.50;99.90;;;;;;494184;241;28871;-73
2021/05/29 09:53:16;;;;;;;3.40;1.90;;;15.50;99.90;;;;;;494132;241;28906;-73
2021/05/29 09:55:17;;;;;;;2.80;1.87;;;15.60;99.90;;;;;;494139;241;28885;-73
2021/05/29 09:57:18;;;;;;;3.00;2.40;;;15.80;99.90;;;;;;494153;241;28857;-73
2021/05/29 09:59:23;;;;;;;2.90;2.13;;;15.80;99.90;;;;;;494125;238;29490;-73
2021/05/29 10:01:23;;;;;;;2.00;1.80;;;15.50;99.90;;;;;;494115;241;28879;-73
2021/05/29 10:03:25;;;;;;;2.33;2.00;;;16.00;99.90;;;;;;494146;241;28816;-73
2021/05/29 10:05:26;;;;;;;2.00;1.90;;;16.00;99.90;;;;;;494141;241;28830;-73
2021/05/29 10:07:27;;;;;;;2.17;2.00;;;16.10;99.90;;;;;;494140;240;28807;-73
2021/05/29 10:09:28;;;;;;;1.60;1.50;;;16.00;99.90;;;;;;494081;241;28833;-75
2021/05/29 10:11:30;;;;;;;1.93;1.83;;;16.20;99.90;;;;;;494109;241;28829;-74
2021/05/29 10:13:31;;;;;;;2.00;1.77;;;16.30;99.90;;;;;;494172;241;28824;-74
2021/05/29 10:15:32;;;;;;;3.30;1.80;;;16.30;99.90;;;;;;494119;241;30165;-74
2021/05/29 10:17:33;;;;;;;2.03;1.93;;;15.90;99.90;;;;;;494104;241;29315;-74
2021/05/29 10:19:36;;;;;;;2.40;1.90;;;15.60;99.90;;;;;;494111;241;29311;-74
2021/05/29 10:21:36;;;;;;;2.40;2.10;;;15.70;99.90;;;;;;493959;241;29347;-73
2021/05/29 10:23:37;;;;;;;2.10;1.90;;;16.20;99.90;;;;;;494063;241;28874;-74
2021/05/29 10:25:38;;;;;;;4.23;1.90;;;16.40;99.90;;;;;;494067;241;28944;-75
2021/05/29 10:27:40;;;;;;;5.13;1.70;;;16.40;99.90;;;;;;494070;241;28799;-75
2021/05/29 10:29:41;;;;;;;2.13;1.80;;;16.40;99.90;;;;;;494042;241;28836;-75
2021/05/29 10:31:42;;;;;;;2.00;1.80;;;16.30;99.90;;;;;;494051;239;28940;-75
2021/05/29 10:33:43;;;;;;;2.03;1.93;;;16.00;99.90;;;;;;494086;241;28868;-75
2021/05/29 10:35:45;;;;;;;1.93;1.80;;;15.90;99.90;;;;;;494059;237;28874;-74
2021/05/29 10:37:46;;;;;;;2.40;1.67;;;15.80;99.90;;;;;;494099;239;28795;-73
2021/05/29 10:39:47;;;;;;;1.80;1.70;;;15.60;99.90;;;;;;494066;241;29297;-73
2021/05/29 10:41:48;;;;;;;2.20;2.00;;;15.50;99.90;;;;;;493901;241;29287;-74
2021/05/29 10:43:50;;;;;;;1.70;1.60;;;15.50;99.90;;;;;;494120;241;29260;-73